sensor_id;sensor_type;location;lat;lon;timestamp;pressure;altitude;pressure_sealevel;temperature;humidity
49947;BME280;35839;48.662;13.300;2023-05-20T05:07:31;97391.06;;;14.14;52.76
49947;BME280;35839;48.662;13.300;2023-05-20T05:09:56;97393.31;;;14.25;52.07
49947;BME280;35839;48.662;13.300;2023-05-20T05:12:22;97384.97;;;14.45;52.83
49947;BME280;35839;48.662;13.300;2023-05-20T05:14:47;97381.28;;;14.62;53.13
49947;BME280;35839;48.662;13.300;2023-05-20T05:17:12;97398.38;;;14.66;53.29
49947;BME280;35839;48.662;13.300;2023-05-20T05:19:38;97395.03;;;14.72;53.82
49947;BME280;35839;48.662;13.300;2023-05-20T05:22:03;97392.63;;;14.86;53.92
49947;BME280;35839;48.662;13.300;2023-05-20T05:24:28;97396.13;;;15.01;53.62
49947;BME280;35839;48.662;13.300;2023-05-20T05:26:54;97399.16;;;15.13;53.96
49947;BME280;35839;48.662;13.300;2023-05-20T05:29:19;97397.38;;;15.28;54.94
49947;BME280;35839;48.662;13.300;2023-05-20T05:31:45;97395.47;;;15.37;55.37
49947;BME280;35839;48.662;13.300;2023-05-20T05:34:10;97393.00;;;15.35;55.52
49947;BME280;35839;48.662;13.300;2023-05-20T05:36:38;97394.41;;;15.46;56.16
49947;BME280;35839;48.662;13.300;2023-05-20T05:39:03;97397.03;;;15.61;57.48
49947;BME280;35839;48.662;13.300;2023-05-20T05:41:29;97397.09;;;15.76;59.00
49947;BME280;35839;48.662;13.300;2023-05-20T05:43:54;97407.69;;;15.68;61.44
49947;BME280;35839;48.662;13.300;2023-05-20T05:46:19;97395.63;;;15.73;63.42
49947;BME280;35839;48.662;13.300;2023-05-20T05:48:45;97401.16;;;15.93;67.04
49947;BME280;35839;48.662;13.300;2023-05-20T05:51:13;97400.44;;;15.99;70.50
49947;BME280;35839;48.662;13.300;2023-05-20T05:53:38;97392.78;;;16.05;74.77
49947;BME280;35839;48.662;13.300;2023-05-20T05:56:04;97390.00;;;16.13;78.60
49947;BME280;35839;48.662;13.300;2023-05-20T05:58:29;97397.00;;;16.35;85.72
49947;BME280;35839;48.662;13.300;2023-05-20T06:00:55;97391.59;;;16.43;91.87
49947;BME280;35839;48.662;13.300;2023-05-20T06:03:20;97393.72;;;16.55;95.80
49947;BME280;35839;48.662;13.300;2023-05-20T06:05:45;97386.97;;;16.67;98.62
49947;BME280;35839;48.662;13.300;2023-05-20T06:08:14;97392.19;;;16.60;100.00
49947;BME280;35839;48.662;13.300;2023-05-20T06:10:39;97391.41;;;16.67;100.00
49947;BME280;35839;48.662;13.300;2023-05-20T06:13:04;97396.88;;;16.80;100.00
49947;BME280;35839;48.662;13.300;2023-05-20T06:15:29;97386.19;;;16.88;100.00
49947;BME280;35839;48.662;13.300;2023-05-20T06:17:55;97391.44;;;17.10;100.00
49947;BME280;35839;48.662;13.300;2023-05-20T06:20:20;97387.25;;;17.22;100.00
49947;BME280;35839;48.662;13.300;2023-05-20T06:22:45;97386.31;;;17.30;100.00
49947;BME280;35839;48.662;13.300;2023-05-20T06:25:11;97390.88;;;17.14;100.00
49947;BME280;35839;48.662;13.300;2023-05-20T06:27:37;97391.91;;;17.20;100.00
49947;BME280;35839;48.662;13.300;2023-05-20T06:30:02;97388.75;;;17.31;100.00
49947;BME280;35839;48.662;13.300;2023-05-20T06:32:28;97388.91;;;17.51;100.00
49947;BME280;35839;48.662;13.300;2023-05-20T06:34:53;97375.97;;;17.69;100.00
49947;BME280;35839;48.662;13.300;2023-05-20T06:37:18;97376.31;;;17.88;100.00
49947;BME280;35839;48.662;13.300;2023-05-20T06:39:43;97383.94;;;18.11;100.00
49947;BME280;35839;48.662;13.300;2023-05-20T06:42:10;97382.97;;;18.19;100.00
49947;BME280;35839;48.662;13.300;2023-05-20T06:44:36;97373.03;;;18.41;100.00
49947;BME280;35839;48.662;13.300;2023-05-20T06:47:01;97380.19;;;18.47;97.27
49947;BME280;35839;48.662;13.300;2023-05-20T06:49:26;97367.75;;;18.47;96.86
49947;BME280;35839;48.662;13.300;2023-05-20T06:51:52;97380.41;;;18.59;94.67
49947;BME280;35839;48.662;13.300;2023-05-20T06:54:17;97377.56;;;18.53;94.96
49947;BME280;35839;48.662;13.300;2023-05-20T06:56:43;97370.66;;;18.72;96.31
49947;BME280;35839;48.662;13.300;2023-05-20T06:59:08;97365.53;;;18.71;96.78
49947;BME280;35839;48.662;13.300;2023-05-20T07:01:33;97353.75;;;18.80;94.27
49947;BME280;35839;48.662;13.300;2023-05-20T07:03:59;97358.88;;;18.88;96.12
49947;BME280;35839;48.662;13.300;2023-05-20T07:06:24;97357.03;;;18.95;92.91
49947;BME280;35839;48.662;13.300;2023-05-20T07:08:49;97361.72;;;19.00;93.50
49947;BME280;35839;48.662;13.300;2023-05-20T07:11:14;97349.25;;;19.27;95.64
49947;BME280;35839;48.662;13.300;2023-05-20T07:13:40;97353.53;;;19.28;93.66
49947;BME280;35839;48.662;13.300;2023-05-20T07:16:05;97339.47;;;19.08;94.49
49947;BME280;35839;48.662;13.300;2023-05-20T07:18:30;97356.81;;;19.24;91.64
49947;BME280;35839;48.662;13.300;2023-05-20T07:20:56;97341.69;;;19.11;92.64
49947;BME280;35839;48.662;13.300;2023-05-20T07:23:22;97355.16;;;19.29;93.54
49947;BME280;35839;48.662;13.300;2023-05-20T07:25:47;97356.56;;;19.45;93.07
49947;BME280;35839;48.662;13.300;2023-05-20T07:28:15;97353.50;;;19.55;91.97
49947;BME280;35839;48.662;13.300;2023-05-20T07:30:40;97347.97;;;19.70;91.87
49947;BME280;35839;48.662;13.300;2023-05-20T07:33:06;97351.44;;;19.64;86.68
49947;BME280;35839;48.662;13.300;2023-05-20T07:35:31;97352.25;;;19.71;89.89
49947;BME280;35839;48.662;13.300;2023-05-20T07:37:56;97354.91;;;19.77;87.04
49947;BME280;35839;48.662;13.300;2023-05-20T07:40:22;97347.44;;;19.99;87.65
49947;BME280;35839;48.662;13.300;2023-05-20T07:42:47;97343.16;;;20.05;86.51
49947;BME280;35839;48.662;13.300;2023-05-20T07:45:12;97340.56;;;19.78;83.30
49947;BME280;35839;48.662;13.300;2023-05-20T07:47:37;97335.91;;;19.61;84.35
49947;BME280;35839;48.662;13.300;2023-05-20T07:50:03;97352.44;;;19.69;83.86
49947;BME280;35839;48.662;13.300;2023-05-20T07:52:28;97348.16;;;19.82;83.46
49947;BME280;35839;48.662;13.300;2023-05-20T07:54:53;97347.72;;;19.85;81.72
49947;BME280;35839;48.662;13.300;2023-05-20T07:57:19;97356.47;;;19.92;79.78
49947;BME280;35839;48.662;13.300;2023-05-20T07:59:44;97353.41;;;19.95;83.19
49947;BME280;35839;48.662;13.300;2023-05-20T08:02:09;97351.63;;;19.55;79.54
49947;BME280;35839;48.662;13.300;2023-05-20T08:04:35;97353.94;;;19.32;81.59
49947;BME280;35839;48.662;13.300;2023-05-20T08:07:00;97351.88;;;19.41;80.86
49947;BME280;35839;48.662;13.300;2023-05-20T08:09:26;97339.03;;;19.44;82.13
49947;BME280;35839;48.662;13.300;2023-05-20T08:11:51;97336.50;;;19.76;81.22
49947;BME280;35839;48.662;13.300;2023-05-20T08:14:16;97336.84;;;19.93;81.78
49947;BME280;35839;48.662;13.300;2023-05-20T08:16:42;97332.56;;;19.92;81.44
49947;BME280;35839;48.662;13.300;2023-05-20T08:19:07;97344.03;;;19.86;79.27
49947;BME280;35839;48.662;13.300;2023-05-20T08:21:32;97337.09;;;20.23;79.00
49947;BME280;35839;48.662;13.300;2023-05-20T08:23:59;97342.09;;;20.51;78.84
49947;BME280;35839;48.662;13.300;2023-05-20T08:26:24;97344.06;;;20.62;77.47
49947;BME280;35839;48.662;13.300;2023-05-20T08:28:50;97329.31;;;20.67;75.57
49947;BME280;35839;48.662;13.300;2023-05-20T08:31:16;97332.59;;;20.69;74.49
49947;BME280;35839;48.662;13.300;2023-05-20T08:33:42;97332.22;;;20.90;74.40
49947;BME280;35839;48.662;13.300;2023-05-20T08:36:07;97342.19;;;20.95;74.58
49947;BME280;35839;48.662;13.300;2023-05-20T08:38:32;97338.88;;;21.50;74.97
49947;BME280;35839;48.662;13.300;2023-05-20T08:40:58;97336.63;;;21.46;72.35
49947;BME280;35839;48.662;13.300;2023-05-20T08:43:24;97341.84;;;21.60;74.71
49947;BME280;35839;48.662;13.300;2023-05-20T08:45:50;97343.16;;;21.51;71.43
49947;BME280;35839;48.662;13.300;2023-05-20T08:48:17;97336.44;;;21.85;71.00
49947;BME280;35839;48.662;13.300;2023-05-20T08:50:44;97339.38;;;21.77;70.50
49947;BME280;35839;48.662;13.300;2023-05-20T08:53:10;97331.78;;;21.80;69.34
49947;BME280;35839;48.662;13.300;2023-05-20T08:55:45;97339.16;;;21.97;69.79
49947;BME280;35839;48.662;13.300;2023-05-20T08:58:11;97339.00;;;22.28;67.28
49947;BME280;35839;48.662;13.300;2023-05-20T09:00:36;97336.34;;;22.28;67.40
49947;BME280;35839;48.662;13.300;2023-05-20T09:03:02;97327.88;;;22.32;68.70
49947;BME280;35839;48.662;13.300;2023-05-20T09:05:28;97331.94;;;22.64;64.26
49947;BME280;35839;48.662;13.300;2023-05-20T09:08:06;97330.16;;;22.58;62.79
49947;BME280;35839;48.662;13.300;2023-05-20T09:10:33;97335.50;;;22.58;62.02
49947;BME280;35839;48.662;13.300;2023-05-20T09:12:59;97337.44;;;22.51;64.42
49947;BME280;35839;48.662;13.300;2023-05-20T09:15:25;97329.34;;;22.58;65.70
49947;BME280;35839;48.662;13.300;2023-05-20T09:17:51;97323.78;;;21.99;64.05
49947;BME280;35839;48.662;13.300;2023-05-20T09:20:16;97337.75;;;22.13;66.02
49947;BME280;35839;48.662;13.300;2023-05-20T09:22:41;97325.75;;;22.22;65.73
49947;BME280;35839;48.662;13.300;2023-05-20T09:25:07;97330.56;;;22.73;64.71
49947;BME280;35839;48.662;13.300;2023-05-20T09:27:33;97319.72;;;23.10;60.75
49947;BME280;35839;48.662;13.300;2023-05-20T09:29:58;97320.75;;;23.09;61.45
49947;BME280;35839;48.662;13.300;2023-05-20T09:32:24;97326.09;;;23.33;59.68
49947;BME280;35839;48.662;13.300;2023-05-20T09:34:52;97323.31;;;23.04;56.47
49947;BME280;35839;48.662;13.300;2023-05-20T09:37:20;97324.81;;;22.58;56.90
49947;BME280;35839;48.662;13.300;2023-05-20T09:39:56;97327.81;;;22.92;57.24
49947;BME280;35839;48.662;13.300;2023-05-20T09:42:34;97334.38;;;23.20;57.50
49947;BME280;35839;48.662;13.300;2023-05-20T09:45:02;97330.34;;;22.87;56.10
49947;BME280;35839;48.662;13.300;2023-05-20T09:47:31;97331.31;;;23.16;57.31
49947;BME280;35839;48.662;13.300;2023-05-20T09:49:56;97321.44;;;23.64;57.66
49947;BME280;35839;48.662;13.300;2023-05-20T09:52:22;97331.97;;;23.94;54.60
49947;BME280;35839;48.662;13.300;2023-05-20T09:54:48;97320.19;;;23.54;52.91
49947;BME280;35839;48.662;13.300;2023-05-20T09:57:15;97324.09;;;23.52;54.07
49947;BME280;35839;48.662;13.300;2023-05-20T09:59:40;97317.13;;;23.63;51.82
49947;BME280;35839;48.662;13.300;2023-05-20T10:02:07;97321.47;;;24.04;52.98
49947;BME280;35839;48.662;13.300;2023-05-20T10:04:34;97313.06;;;24.12;51.89
49947;BME280;35839;48.662;13.300;2023-05-20T10:07:40;97315.91;;;24.06;51.67
49947;BME280;35839;48.662;13.300;2023-05-20T10:15:59;97303.06;;;24.48;48.88
49947;BME280;35839;48.662;13.300;2023-05-20T10:21:31;97316.47;;;24.65;50.54
49947;BME280;35839;48.662;13.300;2023-05-20T10:24:07;97323.59;;;24.59;51.43
49947;BME280;35839;48.662;13.300;2023-05-20T10:26:40;97312.34;;;24.46;50.57
49947;BME280;35839;48.662;13.300;2023-05-20T10:29:18;97324.28;;;24.26;50.49
49947;BME280;35839;48.662;13.300;2023-05-20T10:31:47;97316.94;;;24.62;49.08
49947;BME280;35839;48.662;13.300;2023-05-20T10:34:16;97317.31;;;24.54;50.56
49947;BME280;35839;48.662;13.300;2023-05-20T10:36:55;97316.03;;;24.28;50.20
49947;BME280;35839;48.662;13.300;2023-05-20T10:39:30;97320.19;;;24.07;49.09
49947;BME280;35839;48.662;13.300;2023-05-20T10:42:07;97328.16;;;24.18;48.59
49947;BME280;35839;48.662;13.300;2023-05-20T10:44:46;97326.97;;;23.97;46.98
49947;BME280;35839;48.662;13.300;2023-05-20T10:47:12;97321.34;;;24.11;48.86
49947;BME280;35839;48.662;13.300;2023-05-20T10:49:44;97319.09;;;23.79;48.07
